sensor_id;sensor_type;location;lat;lon;timestamp;noise_LAeq;noise_LA_min;noise_LA_max;noise_LA01;noise_LA95
77134;Laerm;25175;50.140;18.990;2023-04-03T00:00:07;36.43;33.45;43.46;;
77134;Laerm;25175;50.140;18.990;2023-04-03T00:03:13;35.83;33.50;41.08;;
77134;Laerm;25175;50.140;18.990;2023-04-03T00:10:29;36.42;33.64;40.70;;
77134;Laerm;25175;50.140;18.990;2023-04-03T00:13:36;35.93;33.14;40.82;;
77134;Laerm;25175;50.140;18.990;2023-04-03T00:17:11;36.78;33.85;42.93;;
77134;Laerm;25175;50.140;18.990;2023-04-03T00:20:18;38.62;33.88;48.16;;
77134;Laerm;25175;50.140;18.990;2023-04-03T00:23:24;37.07;33.69;42.05;;
77134;Laerm;25175;50.140;18.990;2023-04-03T00:26:35;37.04;33.37;42.77;;
77134;Laerm;25175;50.140;18.990;2023-04-03T00:33:26;36.31;33.74;40.87;;
77134;Laerm;25175;50.140;18.990;2023-04-03T00:36:32;35.54;33.35;39.48;;
77134;Laerm;25175;50.140;18.990;2023-04-03T00:39:39;37.00;33.60;45.70;;
77134;Laerm;25175;50.140;18.990;2023-04-03T00:42:50;35.75;33.00;38.77;;
77134;Laerm;25175;50.140;18.990;2023-04-03T00:46:02;36.30;33.55;41.60;;
77134;Laerm;25175;50.140;18.990;2023-04-03T00:49:10;37.67;33.78;46.00;;
77134;Laerm;25175;50.140;18.990;2023-04-03T00:52:22;36.24;33.98;40.82;;
77134;Laerm;25175;50.140;18.990;2023-04-03T00:55:30;36.12;33.25;40.05;;
77134;Laerm;25175;50.140;18.990;2023-04-03T00:58:46;39.57;33.67;62.69;;
77134;Laerm;25175;50.140;18.990;2023-04-03T01:01:55;40.28;33.42;56.30;;
77134;Laerm;25175;50.140;18.990;2023-04-03T01:05:02;36.17;32.92;49.10;;
77134;Laerm;25175;50.140;18.990;2023-04-03T01:08:09;35.61;32.99;40.07;;
77134;Laerm;25175;50.140;18.990;2023-04-03T01:11:15;38.65;33.17;53.16;;
77134;Laerm;25175;50.140;18.990;2023-04-03T01:14:29;45.43;33.79;62.05;;
77134;Laerm;25175;50.140;18.990;2023-04-03T01:17:39;36.47;33.07;45.53;;
77134;Laerm;25175;50.140;18.990;2023-04-03T01:24:50;35.57;33.50;38.62;;
77134;Laerm;25175;50.140;18.990;2023-04-03T01:27:56;36.12;33.76;41.45;;
77134;Laerm;25175;50.140;18.990;2023-04-03T01:31:20;36.38;33.23;40.70;;
77134;Laerm;25175;50.140;18.990;2023-04-03T01:34:32;35.46;33.37;38.91;;
77134;Laerm;25175;50.140;18.990;2023-04-03T01:37:45;38.29;33.36;50.50;;
77134;Laerm;25175;50.140;18.990;2023-04-03T01:40:51;35.57;33.31;40.79;;
77134;Laerm;25175;50.140;18.990;2023-04-03T01:43:57;35.32;32.80;38.07;;
77134;Laerm;25175;50.140;18.990;2023-04-03T01:47:16;36.47;33.61;41.32;;
77134;Laerm;25175;50.140;18.990;2023-04-03T01:50:24;39.48;33.88;50.83;;
77134;Laerm;25175;50.140;18.990;2023-04-03T01:53:31;36.33;33.63;41.72;;
77134;Laerm;25175;50.140;18.990;2023-04-03T01:56:40;35.63;33.54;39.07;;
77134;Laerm;25175;50.140;18.990;2023-04-03T01:59:46;35.99;33.48;45.82;;
77134;Laerm;25175;50.140;18.990;2023-04-03T02:02:52;37.53;33.61;47.19;;
77134;Laerm;25175;50.140;18.990;2023-04-03T02:06:02;35.86;33.43;40.39;;
77134;Laerm;25175;50.140;18.990;2023-04-03T02:09:10;35.58;33.23;42.64;;
77134;Laerm;25175;50.140;18.990;2023-04-03T02:12:20;35.77;33.27;40.54;;
77134;Laerm;25175;50.140;18.990;2023-04-03T02:15:25;36.43;33.72;43.73;;
77134;Laerm;25175;50.140;18.990;2023-04-03T02:18:33;36.18;34.03;41.16;;
77134;Laerm;25175;50.140;18.990;2023-04-03T02:21:41;36.13;33.43;56.85;;
77134;Laerm;25175;50.140;18.990;2023-04-03T02:24:56;36.74;33.43;65.00;;
77134;Laerm;25175;50.140;18.990;2023-04-03T02:28:02;36.24;33.94;41.37;;
77134;Laerm;25175;50.140;18.990;2023-04-03T02:31:10;37.02;34.10;43.90;;
77134;Laerm;25175;50.140;18.990;2023-04-03T02:34:17;39.48;34.07;52.55;;
77134;Laerm;25175;50.140;18.990;2023-04-03T02:37:29;41.46;34.48;57.82;;
77134;Laerm;25175;50.140;18.990;2023-04-03T02:40:35;44.04;34.75;62.89;;
77134;Laerm;25175;50.140;18.990;2023-04-03T02:43:52;37.56;34.57;44.42;;
77134;Laerm;25175;50.140;18.990;2023-04-03T02:47:03;38.44;34.52;51.37;;
77134;Laerm;25175;50.140;18.990;2023-04-03T02:50:12;39.10;34.42;66.12;;
77134;Laerm;25175;50.140;18.990;2023-04-03T02:53:21;42.75;34.72;60.20;;
77134;Laerm;25175;50.140;18.990;2023-04-03T02:56:29;36.73;33.72;44.72;;
77134;Laerm;25175;50.140;18.990;2023-04-03T02:59:34;40.97;33.95;57.15;;
77134;Laerm;25175;50.140;18.990;2023-04-03T03:02:43;38.11;34.09;50.28;;
77134;Laerm;25175;50.140;18.990;2023-04-03T03:05:48;37.72;34.22;50.02;;
77134;Laerm;25175;50.140;18.990;2023-04-03T03:08:59;39.84;34.23;55.43;;
77134;Laerm;25175;50.140;18.990;2023-04-03T03:12:14;37.98;34.29;48.68;;
77134;Laerm;25175;50.140;18.990;2023-04-03T03:15:26;37.69;34.39;47.08;;
77134;Laerm;25175;50.140;18.990;2023-04-03T03:18:33;42.02;34.00;56.33;;
77134;Laerm;25175;50.140;18.990;2023-04-03T03:21:41;38.57;34.30;49.94;;
77134;Laerm;25175;50.140;18.990;2023-04-03T03:24:52;37.15;34.16;44.21;;
77134;Laerm;25175;50.140;18.990;2023-04-03T03:28:18;43.22;34.85;57.06;;
77134;Laerm;25175;50.140;18.990;2023-04-03T03:31:24;40.12;34.70;53.02;;
77134;Laerm;25175;50.140;18.990;2023-04-03T03:34:31;44.37;34.50;61.53;;
77134;Laerm;25175;50.140;18.990;2023-04-03T03:37:43;45.14;35.27;62.00;;
77134;Laerm;25175;50.140;18.990;2023-04-03T03:40:52;44.30;35.12;57.45;;
77134;Laerm;25175;50.140;18.990;2023-04-03T03:43:58;45.51;34.94;63.37;;
77134;Laerm;25175;50.140;18.990;2023-04-03T03:47:07;42.77;34.51;58.65;;
77134;Laerm;25175;50.140;18.990;2023-04-03T03:50:13;38.90;34.74;50.32;;
77134;Laerm;25175;50.140;18.990;2023-04-03T03:53:25;43.82;34.89;55.29;;
77134;Laerm;25175;50.140;18.990;2023-04-03T03:56:38;41.89;34.06;53.53;;
77134;Laerm;25175;50.140;18.990;2023-04-03T03:59:44;42.77;34.22;60.46;;
77134;Laerm;25175;50.140;18.990;2023-04-03T04:02:53;45.28;34.95;63.83;;
77134;Laerm;25175;50.140;18.990;2023-04-03T04:06:00;43.83;34.60;64.23;;
77134;Laerm;25175;50.140;18.990;2023-04-03T04:09:06;42.37;34.70;55.02;;
77134;Laerm;25175;50.140;18.990;2023-04-03T04:12:14;40.21;34.54;53.44;;
77134;Laerm;25175;50.140;18.990;2023-04-03T04:15:20;44.65;35.42;58.75;;
77134;Laerm;25175;50.140;18.990;2023-04-03T04:18:30;44.63;36.63;57.45;;
77134;Laerm;25175;50.140;18.990;2023-04-03T04:21:35;42.59;35.91;56.89;;
77134;Laerm;25175;50.140;18.990;2023-04-03T04:24:42;43.05;35.82;56.89;;
77134;Laerm;25175;50.140;18.990;2023-04-03T04:27:52;46.73;37.02;65.58;;
77134;Laerm;25175;50.140;18.990;2023-04-03T04:31:01;43.51;35.87;62.20;;
77134;Laerm;25175;50.140;18.990;2023-04-03T04:34:35;44.91;35.44;57.40;;
77134;Laerm;25175;50.140;18.990;2023-04-03T04:37:41;45.42;36.11;56.94;;
77134;Laerm;25175;50.140;18.990;2023-04-03T04:40:53;46.58;35.15;61.23;;
77134;Laerm;25175;50.140;18.990;2023-04-03T04:44:03;47.25;36.15;58.43;;
77134;Laerm;25175;50.140;18.990;2023-04-03T04:47:09;50.09;36.77;62.87;;
77134;Laerm;25175;50.140;18.990;2023-04-03T04:50:16;46.26;35.24;59.11;;
77134;Laerm;25175;50.140;18.990;2023-04-03T04:53:45;45.80;35.60;60.34;;
77134;Laerm;25175;50.140;18.990;2023-04-03T04:56:55;47.26;36.45;57.66;;
77134;Laerm;25175;50.140;18.990;2023-04-03T05:00:06;45.54;36.67;58.47;;
77134;Laerm;25175;50.140;18.990;2023-04-03T05:03:22;45.41;35.54;57.82;;
77134;Laerm;25175;50.140;18.990;2023-04-03T05:06:27;47.68;36.04;59.87;;
77134;Laerm;25175;50.140;18.990;2023-04-03T05:09:36;46.89;35.80;61.52;;
77134;Laerm;25175;50.140;18.990;2023-04-03T05:16:22;44.50;35.20;57.55;;
77134;Laerm;25175;50.140;18.990;2023-04-03T05:19:30;46.42;35.38;60.20;;
77134;Laerm;25175;50.140;18.990;2023-04-03T05:22:38;47.90;35.84;58.96;;
77134;Laerm;25175;50.140;18.990;2023-04-03T05:25:45;50.21;35.09;62.39;;
77134;Laerm;25175;50.140;18.990;2023-04-03T05:28:53;50.14;36.00;66.68;;
77134;Laerm;25175;50.140;18.990;2023-04-03T05:32:00;50.37;37.12;61.51;;
77134;Laerm;25175;50.140;18.990;2023-04-03T05:35:08;47.85;36.32;60.44;;
77134;Laerm;25175;50.140;18.990;2023-04-03T05:38:23;45.67;35.58;63.05;;
77134;Laerm;25175;50.140;18.990;2023-04-03T05:41:32;49.75;36.78;67.25;;
77134;Laerm;25175;50.140;18.990;2023-04-03T05:44:41;46.55;35.70;58.11;;
77134;Laerm;25175;50.140;18.990;2023-04-03T05:47:52;48.91;36.37;60.25;;
77134;Laerm;25175;50.140;18.990;2023-04-03T05:51:01;49.00;37.84;57.68;;
77134;Laerm;25175;50.140;18.990;2023-04-03T05:54:14;50.56;36.68;70.94;;
77134;Laerm;25175;50.140;18.990;2023-04-03T05:57:23;49.48;35.82;65.00;;
77134;Laerm;25175;50.140;18.990;2023-04-03T06:00:28;48.78;37.93;59.69;;
77134;Laerm;25175;50.140;18.990;2023-04-03T06:04:08;47.12;34.81;60.58;;
77134;Laerm;25175;50.140;18.990;2023-04-03T06:07:21;49.34;37.29;68.34;;
77134;Laerm;25175;50.140;18.990;2023-04-03T06:10:30;46.74;35.18;57.25;;
77134;Laerm;25175;50.140;18.990;2023-04-03T06:13:36;48.12;40.57;59.64;;
77134;Laerm;25175;50.140;18.990;2023-04-03T06:16:50;49.23;35.36;62.30;;
77134;Laerm;25175;50.140;18.990;2023-04-03T06:20:02;46.07;34.77;58.57;;
77134;Laerm;25175;50.140;18.990;2023-04-03T06:23:07;46.23;35.11;61.44;;
77134;Laerm;25175;50.140;18.990;2023-04-03T06:26:16;46.28;35.23;71.48;;
77134;Laerm;25175;50.140;18.990;2023-04-03T06:29:22;49.05;36.05;63.60;;
77134;Laerm;25175;50.140;18.990;2023-04-03T06:32:28;47.01;35.08;61.11;;
77134;Laerm;25175;50.140;18.990;2023-04-03T06:35:35;43.79;34.83;53.84;;
77134;Laerm;25175;50.140;18.990;2023-04-03T06:38:41;46.20;35.28;56.08;;
77134;Laerm;25175;50.140;18.990;2023-04-03T06:41:47;47.14;35.61;59.14;;
77134;Laerm;25175;50.140;18.990;2023-04-03T06:44:54;46.37;34.97;62.52;;
77134;Laerm;25175;50.140;18.990;2023-04-03T06:48:06;47.79;35.66;58.16;;
77134;Laerm;25175;50.140;18.990;2023-04-03T06:51:22;46.88;35.66;58.15;;
77134;Laerm;25175;50.140;18.990;2023-04-03T06:54:28;45.19;34.99;58.02;;
77134;Laerm;25175;50.140;18.990;2023-04-03T06:57:34;45.61;35.26;59.48;;
77134;Laerm;25175;50.140;18.990;2023-04-03T07:00:39;47.35;35.79;63.54;;
77134;Laerm;25175;50.140;18.990;2023-04-03T07:03:46;46.70;36.23;57.38;;
77134;Laerm;25175;50.140;18.990;2023-04-03T07:06:54;46.37;36.30;59.26;;
77134;Laerm;25175;50.140;18.990;2023-04-03T07:10:03;46.36;35.86;59.31;;
77134;Laerm;25175;50.140;18.990;2023-04-03T07:13:08;46.49;34.89;59.11;;
77134;Laerm;25175;50.140;18.990;2023-04-03T07:16:16;44.88;35.89;56.37;;
77134;Laerm;25175;50.140;18.990;2023-04-03T07:19:21;44.24;36.20;59.30;;
77134;Laerm;25175;50.140;18.990;2023-04-03T07:22:34;45.71;36.17;56.87;;
77134;Laerm;25175;50.140;18.990;2023-04-03T07:25:43;46.83;35.59;71.00;;
77134;Laerm;25175;50.140;18.990;2023-04-03T07:28:50;47.44;35.59;67.87;;
77134;Laerm;25175;50.140;18.990;2023-04-03T07:32:08;44.91;35.11;58.88;;
77134;Laerm;25175;50.140;18.990;2023-04-03T07:35:14;45.95;34.79;57.22;;
77134;Laerm;25175;50.140;18.990;2023-04-03T07:38:22;47.31;35.64;58.54;;
77134;Laerm;25175;50.140;18.990;2023-04-03T07:41:28;52.03;35.41;69.40;;
77134;Laerm;25175;50.140;18.990;2023-04-03T07:44:33;46.50;35.02;59.16;;
77134;Laerm;25175;50.140;18.990;2023-04-03T07:47:39;44.86;35.30;57.70;;
77134;Laerm;25175;50.140;18.990;2023-04-03T07:50:45;45.45;35.93;55.83;;
77134;Laerm;25175;50.140;18.990;2023-04-03T07:53:54;46.15;35.26;57.58;;
77134;Laerm;25175;50.140;18.990;2023-04-03T07:56:59;48.40;35.21;68.57;;
77134;Laerm;25175;50.140;18.990;2023-04-03T08:00:07;47.75;34.70;63.99;;
77134;Laerm;25175;50.140;18.990;2023-04-03T08:03:19;46.54;34.92;62.46;;
77134;Laerm;25175;50.140;18.990;2023-04-03T08:06:25;42.72;34.55;61.05;;
77134;Laerm;25175;50.140;18.990;2023-04-03T08:09:35;41.84;35.19;57.18;;
77134;Laerm;25175;50.140;18.990;2023-04-03T08:12:41;49.55;35.44;73.10;;
77134;Laerm;25175;50.140;18.990;2023-04-03T08:15:47;45.14;34.74;60.34;;
77134;Laerm;25175;50.140;18.990;2023-04-03T08:18:54;47.81;35.13;63.31;;
77134;Laerm;25175;50.140;18.990;2023-04-03T08:22:05;44.43;34.71;57.92;;
77134;Laerm;25175;50.140;18.990;2023-04-03T08:25:14;48.65;36.39;64.70;;
77134;Laerm;25175;50.140;18.990;2023-04-03T08:28:20;46.27;34.71;60.87;;
77134;Laerm;25175;50.140;18.990;2023-04-03T08:31:26;45.27;35.39;55.66;;
77134;Laerm;25175;50.140;18.990;2023-04-03T08:34:31;48.67;36.03;61.33;;
77134;Laerm;25175;50.140;18.990;2023-04-03T08:37:45;44.34;35.09;57.89;;
77134;Laerm;25175;50.140;18.990;2023-04-03T08:41:13;43.64;35.84;57.37;;
77134;Laerm;25175;50.140;18.990;2023-04-03T08:44:31;44.76;35.92;59.99;;
77134;Laerm;25175;50.140;18.990;2023-04-03T08:47:52;46.28;35.41;67.11;;
77134;Laerm;25175;50.140;18.990;2023-04-03T08:51:12;44.24;35.37;68.38;;
77134;Laerm;25175;50.140;18.990;2023-04-03T08:54:28;45.70;35.28;64.83;;
77134;Laerm;25175;50.140;18.990;2023-04-03T08:58:03;44.30;35.33;61.71;;
77134;Laerm;25175;50.140;18.990;2023-04-03T09:01:21;44.58;35.23;57.23;;
77134;Laerm;25175;50.140;18.990;2023-04-03T09:04:32;50.94;35.83;77.20;;
77134;Laerm;25175;50.140;18.990;2023-04-03T09:07:45;44.59;35.82;60.92;;
77134;Laerm;25175;50.140;18.990;2023-04-03T09:11:06;46.14;36.22;56.28;;
77134;Laerm;25175;50.140;18.990;2023-04-03T09:14:30;46.21;35.15;61.06;;
77134;Laerm;25175;50.140;18.990;2023-04-03T09:17:56;46.58;35.52;60.26;;
77134;Laerm;25175;50.140;18.990;2023-04-03T09:21:15;44.75;35.92;58.72;;
77134;Laerm;25175;50.140;18.990;2023-04-03T09:24:31;45.75;36.10;62.27;;
77134;Laerm;25175;50.140;18.990;2023-04-03T09:27:37;45.75;35.99;57.63;;
77134;Laerm;25175;50.140;18.990;2023-04-03T09:30:46;44.82;34.63;61.15;;
77134;Laerm;25175;50.140;18.990;2023-04-03T09:33:57;47.71;35.72;59.92;;
77134;Laerm;25175;50.140;18.990;2023-04-03T09:37:07;47.62;36.34;65.92;;
77134;Laerm;25175;50.140;18.990;2023-04-03T09:40:35;45.85;37.44;60.61;;
77134;Laerm;25175;50.140;18.990;2023-04-03T09:43:54;45.64;36.17;56.54;;
77134;Laerm;25175;50.140;18.990;2023-04-03T09:47:19;48.06;37.56;61.38;;
77134;Laerm;25175;50.140;18.990;2023-04-03T09:50:33;48.89;36.21;65.78;;
77134;Laerm;25175;50.140;18.990;2023-04-03T09:53:41;44.57;36.75;57.93;;
77134;Laerm;25175;50.140;18.990;2023-04-03T09:56:51;45.88;36.00;56.56;;
77134;Laerm;25175;50.140;18.990;2023-04-03T10:00:01;48.92;35.50;66.15;;
77134;Laerm;25175;50.140;18.990;2023-04-03T10:03:29;49.16;38.71;60.61;;
77134;Laerm;25175;50.140;18.990;2023-04-03T10:06:37;47.60;36.16;63.11;;
77134;Laerm;25175;50.140;18.990;2023-04-03T10:09:56;44.03;35.61;55.43;;
77134;Laerm;25175;50.140;18.990;2023-04-03T10:13:07;46.51;34.69;61.01;;
77134;Laerm;25175;50.140;18.990;2023-04-03T10:16:20;41.10;35.05;54.46;;
77134;Laerm;25175;50.140;18.990;2023-04-03T10:19:40;45.29;35.81;60.83;;
77134;Laerm;25175;50.140;18.990;2023-04-03T10:23:08;47.76;35.49;60.33;;
77134;Laerm;25175;50.140;18.990;2023-04-03T10:26:35;46.93;34.48;59.75;;
77134;Laerm;25175;50.140;18.990;2023-04-03T10:30:00;45.08;34.98;59.46;;
77134;Laerm;25175;50.140;18.990;2023-04-03T10:33:49;45.47;35.10;59.98;;
77134;Laerm;25175;50.140;18.990;2023-04-03T10:37:13;45.36;35.73;58.21;;
77134;Laerm;25175;50.140;18.990;2023-04-03T10:40:35;47.36;38.35;60.48;;
77134;Laerm;25175;50.140;18.990;2023-04-03T10:44:03;44.72;34.76;56.35;;
77134;Laerm;25175;50.140;18.990;2023-04-03T10:47:21;44.62;34.95;58.01;;
77134;Laerm;25175;50.140;18.990;2023-04-03T10:51:05;46.22;35.27;60.53;;
77134;Laerm;25175;50.140;18.990;2023-04-03T10:54:30;46.27;35.34;59.10;;
77134;Laerm;25175;50.140;18.990;2023-04-03T10:57:40;45.37;34.36;68.31;;
77134;Laerm;25175;50.140;18.990;2023-04-03T11:00:50;43.98;35.13;55.77;;
77134;Laerm;25175;50.140;18.990;2023-04-03T11:04:01;43.77;34.69;55.78;;
77134;Laerm;25175;50.140;18.990;2023-04-03T11:07:23;46.08;34.86;59.50;;
77134;Laerm;25175;50.140;18.990;2023-04-03T11:10:42;44.33;34.74;58.73;;
77134;Laerm;25175;50.140;18.990;2023-04-03T11:14:10;46.55;35.43;59.31;;
77134;Laerm;25175;50.140;18.990;2023-04-03T11:17:33;49.04;35.84;67.97;;
77134;Laerm;25175;50.140;18.990;2023-04-03T11:20:59;43.73;35.33;57.16;;
77134;Laerm;25175;50.140;18.990;2023-04-03T11:27:46;43.83;35.50;56.43;;
77134;Laerm;25175;50.140;18.990;2023-04-03T11:31:30;44.90;35.56;59.13;;
77134;Laerm;25175;50.140;18.990;2023-04-03T11:34:45;44.52;34.48;56.06;;
77134;Laerm;25175;50.140;18.990;2023-04-03T11:37:54;45.36;34.69;57.36;;
77134;Laerm;25175;50.140;18.990;2023-04-03T11:41:01;41.56;34.29;55.98;;
77134;Laerm;25175;50.140;18.990;2023-04-03T11:44:33;45.61;35.34;60.90;;
77134;Laerm;25175;50.140;18.990;2023-04-03T11:47:52;45.34;35.69;60.03;;
77134;Laerm;25175;50.140;18.990;2023-04-03T11:51:00;45.81;35.13;58.00;;
77134;Laerm;25175;50.140;18.990;2023-04-03T11:54:36;44.71;34.44;59.34;;
77134;Laerm;25175;50.140;18.990;2023-04-03T11:58:03;45.76;35.40;57.69;;
77134;Laerm;25175;50.140;18.990;2023-04-03T12:01:48;45.25;35.26;59.61;;
77134;Laerm;25175;50.140;18.990;2023-04-03T12:09:30;44.12;34.74;58.13;;
77134;Laerm;25175;50.140;18.990;2023-04-03T12:12:40;48.10;35.66;60.47;;
77134;Laerm;25175;50.140;18.990;2023-04-03T12:16:05;47.55;35.14;58.75;;
77134;Laerm;25175;50.140;18.990;2023-04-03T12:19:38;40.57;34.37;53.94;;
77134;Laerm;25175;50.140;18.990;2023-04-03T12:23:08;46.41;34.93;61.54;;
77134;Laerm;25175;50.140;18.990;2023-04-03T12:26:44;45.46;34.42;58.70;;
77134;Laerm;25175;50.140;18.990;2023-04-03T12:30:03;47.61;35.24;62.22;;
77134;Laerm;25175;50.140;18.990;2023-04-03T12:33:37;46.26;34.45;63.13;;
77134;Laerm;25175;50.140;18.990;2023-04-03T12:37:06;49.12;34.99;70.42;;
77134;Laerm;25175;50.140;18.990;2023-04-03T12:40:26;45.30;34.61;64.39;;
77134;Laerm;25175;50.140;18.990;2023-04-03T12:43:56;47.14;36.23;60.35;;
77134;Laerm;25175;50.140;18.990;2023-04-03T12:47:27;47.55;35.02;62.97;;
77134;Laerm;25175;50.140;18.990;2023-04-03T12:50:35;46.00;34.55;55.76;;
77134;Laerm;25175;50.140;18.990;2023-04-03T12:53:45;46.86;34.90;56.79;;
77134;Laerm;25175;50.140;18.990;2023-04-03T12:56:52;44.93;35.49;56.89;;
77134;Laerm;25175;50.140;18.990;2023-04-03T13:00:28;46.85;37.08;60.20;;
77134;Laerm;25175;50.140;18.990;2023-04-03T13:03:40;45.97;35.58;60.79;;
77134;Laerm;25175;50.140;18.990;2023-04-03T13:06:51;46.59;35.52;59.07;;
77134;Laerm;25175;50.140;18.990;2023-04-03T13:10:14;42.92;35.04;54.84;;
77134;Laerm;25175;50.140;18.990;2023-04-03T13:13:22;46.34;36.54;55.05;;
77134;Laerm;25175;50.140;18.990;2023-04-03T13:16:29;43.52;35.77;57.71;;
77134;Laerm;25175;50.140;18.990;2023-04-03T13:19:35;45.85;37.54;59.21;;
77134;Laerm;25175;50.140;18.990;2023-04-03T13:23:00;45.80;35.96;64.40;;
77134;Laerm;25175;50.140;18.990;2023-04-03T13:26:10;48.57;35.30;60.21;;
77134;Laerm;25175;50.140;18.990;2023-04-03T13:29:25;47.71;37.17;60.07;;
77134;Laerm;25175;50.140;18.990;2023-04-03T13:32:33;47.55;38.05;61.97;;
77134;Laerm;25175;50.140;18.990;2023-04-03T13:35:41;50.18;39.53;69.12;;
77134;Laerm;25175;50.140;18.990;2023-04-03T13:42:28;49.68;40.61;59.58;;
77134;Laerm;25175;50.140;18.990;2023-04-03T13:45:36;49.83;38.96;63.13;;
77134;Laerm;25175;50.140;18.990;2023-04-03T13:48:43;47.95;38.05;60.02;;
77134;Laerm;25175;50.140;18.990;2023-04-03T13:51:50;47.81;39.00;60.52;;
77134;Laerm;25175;50.140;18.990;2023-04-03T13:55:00;48.55;37.44;64.24;;
77134;Laerm;25175;50.140;18.990;2023-04-03T13:58:23;47.34;40.79;61.26;;
77134;Laerm;25175;50.140;18.990;2023-04-03T14:01:45;48.02;34.73;62.07;;
77134;Laerm;25175;50.140;18.990;2023-04-03T14:05:03;45.78;34.90;56.75;;
77134;Laerm;25175;50.140;18.990;2023-04-03T14:08:10;45.03;35.07;54.67;;
77134;Laerm;25175;50.140;18.990;2023-04-03T14:11:34;46.74;35.77;58.65;;
77134;Laerm;25175;50.140;18.990;2023-04-03T14:14:45;44.87;35.92;59.17;;
77134;Laerm;25175;50.140;18.990;2023-04-03T14:17:56;47.38;35.53;60.94;;
77134;Laerm;25175;50.140;18.990;2023-04-03T14:21:01;48.46;34.85;59.35;;
77134;Laerm;25175;50.140;18.990;2023-04-03T14:24:08;45.83;35.80;55.63;;
77134;Laerm;25175;50.140;18.990;2023-04-03T14:27:19;46.59;36.32;63.89;;
77134;Laerm;25175;50.140;18.990;2023-04-03T14:30:33;46.75;36.37;56.83;;
77134;Laerm;25175;50.140;18.990;2023-04-03T14:33:41;46.35;35.79;58.94;;
77134;Laerm;25175;50.140;18.990;2023-04-03T14:36:47;45.94;35.44;58.61;;
77134;Laerm;25175;50.140;18.990;2023-04-03T14:39:57;46.21;35.43;61.57;;
77134;Laerm;25175;50.140;18.990;2023-04-03T14:43:03;46.28;36.03;62.22;;
77134;Laerm;25175;50.140;18.990;2023-04-03T14:46:17;46.71;35.44;58.59;;
77134;Laerm;25175;50.140;18.990;2023-04-03T14:49:27;46.04;34.82;59.24;;
77134;Laerm;25175;50.140;18.990;2023-04-03T14:52:35;44.17;35.34;59.92;;
77134;Laerm;25175;50.140;18.990;2023-04-03T14:55:44;49.37;35.08;63.52;;
77134;Laerm;25175;50.140;18.990;2023-04-03T14:58:56;47.08;36.19;63.87;;
77134;Laerm;25175;50.140;18.990;2023-04-03T15:02:27;46.92;35.01;58.66;;
77134;Laerm;25175;50.140;18.990;2023-04-03T15:05:32;45.53;34.56;56.31;;
77134;Laerm;25175;50.140;18.990;2023-04-03T15:08:47;44.61;35.58;54.88;;
77134;Laerm;25175;50.140;18.990;2023-04-03T15:11:54;47.41;36.11;58.54;;
77134;Laerm;25175;50.140;18.990;2023-04-03T15:15:00;45.78;35.10;56.55;;
77134;Laerm;25175;50.140;18.990;2023-04-03T15:18:17;44.98;34.10;57.86;;
77134;Laerm;25175;50.140;18.990;2023-04-03T15:21:24;45.55;34.37;59.11;;
77134;Laerm;25175;50.140;18.990;2023-04-03T15:24:29;46.85;34.78;61.03;;
77134;Laerm;25175;50.140;18.990;2023-04-03T15:27:41;48.26;38.02;58.37;;
77134;Laerm;25175;50.140;18.990;2023-04-03T15:30:46;49.56;36.93;63.02;;
77134;Laerm;25175;50.140;18.990;2023-04-03T15:33:55;51.80;35.94;72.90;;
77134;Laerm;25175;50.140;18.990;2023-04-03T15:36:59;50.02;35.87;65.56;;
77134;Laerm;25175;50.140;18.990;2023-04-03T15:40:07;45.50;35.67;59.42;;
77134;Laerm;25175;50.140;18.990;2023-04-03T15:43:19;44.42;34.90;56.10;;
77134;Laerm;25175;50.140;18.990;2023-04-03T15:46:25;43.26;34.37;60.41;;
77134;Laerm;25175;50.140;18.990;2023-04-03T15:49:34;46.08;34.49;67.57;;
77134;Laerm;25175;50.140;18.990;2023-04-03T15:52:48;45.83;34.69;57.44;;
77134;Laerm;25175;50.140;18.990;2023-04-03T15:55:56;42.43;34.88;53.18;;
77134;Laerm;25175;50.140;18.990;2023-04-03T15:59:09;44.87;34.84;60.68;;
77134;Laerm;25175;50.140;18.990;2023-04-03T16:02:15;49.32;36.13;66.80;;
77134;Laerm;25175;50.140;18.990;2023-04-03T16:05:29;54.16;35.35;73.72;;
77134;Laerm;25175;50.140;18.990;2023-04-03T16:08:38;46.66;34.02;60.80;;
77134;Laerm;25175;50.140;18.990;2023-04-03T16:11:44;44.77;33.94;56.71;;
77134;Laerm;25175;50.140;18.990;2023-04-03T16:14:49;45.74;34.20;63.73;;
77134;Laerm;25175;50.140;18.990;2023-04-03T16:17:59;50.03;34.67;61.02;;
77134;Laerm;25175;50.140;18.990;2023-04-03T16:21:11;45.87;35.78;60.23;;
77134;Laerm;25175;50.140;18.990;2023-04-03T16:24:16;46.00;34.62;58.53;;
77134;Laerm;25175;50.140;18.990;2023-04-03T16:27:22;48.23;35.95;62.53;;
77134;Laerm;25175;50.140;18.990;2023-04-03T16:30:42;46.70;35.12;58.82;;
77134;Laerm;25175;50.140;18.990;2023-04-03T16:33:51;46.21;34.12;64.89;;
77134;Laerm;25175;50.140;18.990;2023-04-03T16:37:00;45.73;34.87;60.72;;
77134;Laerm;25175;50.140;18.990;2023-04-03T16:40:07;44.36;35.03;60.89;;
77134;Laerm;25175;50.140;18.990;2023-04-03T16:43:25;44.66;34.84;59.78;;
77134;Laerm;25175;50.140;18.990;2023-04-03T16:46:30;45.57;34.74;58.05;;
77134;Laerm;25175;50.140;18.990;2023-04-03T16:49:36;53.41;34.23;70.63;;
77134;Laerm;25175;50.140;18.990;2023-04-03T16:52:46;45.83;34.80;56.92;;
77134;Laerm;25175;50.140;18.990;2023-04-03T16:55:53;44.13;35.21;55.82;;
77134;Laerm;25175;50.140;18.990;2023-04-03T16:58:58;46.47;35.44;58.24;;
77134;Laerm;25175;50.140;18.990;2023-04-03T17:02:04;44.51;34.98;56.57;;
77134;Laerm;25175;50.140;18.990;2023-04-03T17:05:09;44.02;34.71;56.32;;
77134;Laerm;25175;50.140;18.990;2023-04-03T17:08:18;48.12;35.32;63.65;;
77134;Laerm;25175;50.140;18.990;2023-04-03T17:11:23;47.25;33.88;61.62;;
77134;Laerm;25175;50.140;18.990;2023-04-03T17:14:30;52.51;34.15;68.31;;
77134;Laerm;25175;50.140;18.990;2023-04-03T17:17:36;46.42;34.14;62.33;;
77134;Laerm;25175;50.140;18.990;2023-04-03T17:20:44;46.81;34.22;61.78;;
77134;Laerm;25175;50.140;18.990;2023-04-03T17:23:57;41.80;34.21;53.67;;
77134;Laerm;25175;50.140;18.990;2023-04-03T17:27:05;50.04;34.29;68.57;;
77134;Laerm;25175;50.140;18.990;2023-04-03T17:30:11;44.91;35.25;62.16;;
77134;Laerm;25175;50.140;18.990;2023-04-03T17:33:18;46.72;35.02;58.72;;
77134;Laerm;25175;50.140;18.990;2023-04-03T17:36:23;45.36;34.71;56.12;;
77134;Laerm;25175;50.140;18.990;2023-04-03T17:39:32;43.97;34.15;55.64;;
77134;Laerm;25175;50.140;18.990;2023-04-03T17:42:37;46.65;35.29;56.00;;
77134;Laerm;25175;50.140;18.990;2023-04-03T17:45:42;42.91;34.06;57.22;;
77134;Laerm;25175;50.140;18.990;2023-04-03T17:48:47;45.11;34.48;57.31;;
77134;Laerm;25175;50.140;18.990;2023-04-03T17:51:53;44.16;34.08;58.32;;
77134;Laerm;25175;50.140;18.990;2023-04-03T17:55:01;44.61;35.27;54.11;;
77134;Laerm;25175;50.140;18.990;2023-04-03T17:58:16;43.72;34.14;59.41;;
77134;Laerm;25175;50.140;18.990;2023-04-03T18:01:24;45.84;34.74;59.81;;
77134;Laerm;25175;50.140;18.990;2023-04-03T18:04:31;43.69;34.70;58.21;;